createdAt,value
2023-04-04T00:00:48.078Z,20
2023-04-04T00:06:25.159Z,20
2023-04-04T00:12:16.917Z,20
2023-04-04T00:17:53.330Z,20
2023-04-04T00:23:30.327Z,20
2023-04-04T00:29:21.662Z,20
2023-04-04T00:35:13.996Z,20
2023-04-04T00:40:49.748Z,20
2023-04-04T00:46:41.331Z,20
2023-04-04T00:52:18.903Z,20
2023-04-04T00:58:10.695Z,20
2023-04-04T01:04:03.323Z,20
2023-04-04T01:09:54.793Z,20
2023-04-04T01:15:30.661Z,20
2023-04-04T01:21:06.709Z,20
2023-04-04T01:26:42.467Z,19.9
2023-04-04T01:32:33.956Z,20
2023-04-04T01:38:26.879Z,19.9
2023-04-04T01:44:19.616Z,20
2023-04-04T01:49:58.072Z,19.9
2023-04-04T01:55:19.144Z,20
2023-04-04T02:01:10.833Z,19.9
2023-04-04T02:06:47.621Z,20
2023-04-04T02:12:38.541Z,20
2023-04-04T02:18:17.974Z,20
2023-04-04T02:23:54.198Z,19.9
2023-04-04T02:29:29.902Z,19.9
2023-04-04T02:35:21.770Z,19.9
2023-04-04T02:41:13.721Z,20
2023-04-04T02:47:11.227Z,19.9
2023-04-04T02:53:02.740Z,19.9
2023-04-04T02:58:54.592Z,19.9
2023-04-04T03:04:32.521Z,19.9
2023-04-04T03:10:23.187Z,19.9
2023-04-04T03:16:14.967Z,19.9
2023-04-04T03:21:51.452Z,19.9
2023-04-04T03:27:27.939Z,19.9
2023-04-04T03:33:19.830Z,19.9
2023-04-04T03:39:10.821Z,20.1
2023-04-04T03:45:02.548Z,20.2
2023-04-04T03:50:54.509Z,20.4
2023-04-04T03:56:46.038Z,20.5
2023-04-04T04:02:22.240Z,20.5
2023-04-04T04:08:16.047Z,20.4
2023-04-04T04:14:07.615Z,20.4
2023-04-04T04:20:00.104Z,20.4
2023-04-04T04:25:51.933Z,20.4
2023-04-04T04:31:43.280Z,20.4
2023-04-04T04:37:22.062Z,20.4
2023-04-04T04:43:13.311Z,20.3
2023-04-04T04:49:05.773Z,20.3
2023-04-04T04:54:58.106Z,20.3
2023-04-04T05:00:50.570Z,20.3
2023-04-04T05:06:42.407Z,20.2
2023-04-04T05:12:34.396Z,20.2
2023-04-04T05:18:27.643Z,20.2
2023-04-04T05:24:18.814Z,20.2
2023-04-04T05:30:10.459Z,20.2
2023-04-04T05:36:03.024Z,20.2
2023-04-04T05:41:55.300Z,20.2
2023-04-04T05:47:32.483Z,20.3
2023-04-04T05:53:23.924Z,20.2
2023-04-04T05:59:16.315Z,20.2
2023-04-04T06:05:08.631Z,20.1
2023-04-04T06:11:05.944Z,20.1
2023-04-04T06:16:59.906Z,20.1
2023-04-04T06:22:52.227Z,20.1
2023-04-04T06:28:43.889Z,20.1
2023-04-04T06:34:36.443Z,20
2023-04-04T06:40:28.510Z,19.9
2023-04-04T06:46:20.298Z,19.9
2023-04-04T06:51:56.923Z,19.9
2023-04-04T06:57:48.740Z,19.9
2023-04-04T07:03:41.983Z,19.9
2023-04-04T07:09:45.732Z,19.8
2023-04-04T07:15:37.943Z,19.8
2023-04-04T07:21:36.681Z,19.8
2023-04-04T07:27:28.710Z,19.8
2023-04-04T07:33:31.578Z,19.8
2023-04-04T07:39:23.205Z,19.8
2023-04-04T07:45:15.943Z,19.8
2023-04-04T07:50:51.595Z,19.8
2023-04-04T07:56:43.240Z,19.7
2023-04-04T08:02:35.639Z,19.7
2023-04-04T08:08:28.601Z,19.7
2023-04-04T08:14:20.720Z,19.7
2023-04-04T08:20:12.998Z,19.7
2023-04-04T08:26:06.485Z,19.7
2023-04-04T08:32:08.353Z,19.6
2023-04-04T08:38:13.983Z,19.6
2023-04-04T08:44:05.951Z,19.6
2023-04-04T08:49:58.686Z,19.6
2023-04-04T08:55:50.656Z,19.6
2023-04-04T09:01:44.121Z,19.6
2023-04-04T09:07:52.834Z,19.6
2023-04-04T09:13:56.737Z,19.6
2023-04-04T09:19:49.047Z,19.6
2023-04-04T09:25:41.094Z,19.6
2023-04-04T09:31:26.151Z,19.6
2023-04-04T09:37:18.744Z,19.6
2023-04-04T09:43:12.365Z,19.6
2023-04-04T09:49:25.554Z,19.6
2023-04-04T09:55:37.838Z,19.6
2023-04-04T10:01:46.287Z,19.5
2023-04-04T10:07:49.484Z,19.5
2023-04-04T10:13:55.262Z,19.5
2023-04-04T10:19:48.162Z,19.5
2023-04-04T10:25:51.797Z,19.5
2023-04-04T10:31:56.580Z,19.5
2023-04-04T10:37:50.712Z,19.5
2023-04-04T10:43:42.409Z,19.4
2023-04-04T10:49:33.912Z,19.4
2023-04-04T10:55:36.080Z,19.4
2023-04-04T11:01:28.634Z,19.4
2023-04-04T11:07:21.176Z,19.4
2023-04-04T11:13:45.105Z,19.4
2023-04-04T11:19:54.522Z,19.4
2023-04-04T11:25:45.978Z,19.4
2023-04-04T11:31:38.712Z,19.4
2023-04-04T11:37:44.488Z,19.4
2023-04-04T11:43:35.952Z,19.4
2023-04-04T11:49:28.126Z,19.4
2023-04-04T11:55:05.136Z,19.3
2023-04-04T12:01:05.853Z,19.3
2023-04-04T12:06:59.268Z,19.3
2023-04-04T12:12:50.879Z,19.3
2023-04-04T12:18:56.631Z,19.3
2023-04-04T12:24:50.515Z,19.3
2023-04-04T12:30:42.660Z,19.3
2023-04-04T12:36:34.822Z,19.3
2023-04-04T12:42:27.213Z,19.3
2023-04-04T12:48:19.321Z,19.3
2023-04-04T12:54:30.097Z,19.3
2023-04-04T13:00:31.606Z,19.3
2023-04-04T13:06:23.706Z,19.3
2023-04-04T13:12:15.740Z,19.3
2023-04-04T13:17:55.410Z,19.3
2023-04-04T13:23:47.208Z,19.3
2023-04-04T13:29:38.980Z,19.3
2023-04-04T13:35:31.874Z,19.2
2023-04-04T13:41:23.572Z,19.2
2023-04-04T13:47:15.684Z,19.1
2023-04-04T13:53:09.510Z,19.1
2023-04-04T13:59:24.940Z,19.1
2023-04-04T14:05:29.131Z,19
2023-04-04T14:11:29.707Z,19
2023-04-04T14:17:23.599Z,19
2023-04-04T14:23:15.918Z,18.9
2023-04-04T14:28:52.738Z,18.9
2023-04-04T14:34:46.335Z,18.9
2023-04-04T14:40:40.182Z,18.9
2023-04-04T14:46:32.438Z,18.9
2023-04-04T14:52:24.687Z,18.9
2023-04-04T14:58:34.552Z,18.9
2023-04-04T15:04:29.392Z,18.9
2023-04-04T15:10:23.048Z,18.9
2023-04-04T15:15:59.941Z,18.9
2023-04-04T15:21:37.125Z,18.9
2023-04-04T15:27:30.601Z,19.1
2023-04-04T15:33:26.038Z,19.2
2023-04-04T15:39:18.027Z,19.3
2023-04-04T15:45:15.049Z,19.1
2023-04-04T15:50:51.720Z,19.1
2023-04-04T15:56:44.530Z,19.1
2023-04-04T16:02:36.820Z,19.1
2023-04-04T16:08:28.570Z,19.1
2023-04-04T16:14:22.844Z,19
2023-04-04T16:20:16.332Z,19
2023-04-04T16:26:07.678Z,18.9
2023-04-04T16:32:00.666Z,18.9
2023-04-04T16:37:38.445Z,18.9
2023-04-04T16:43:19.354Z,18.9
2023-04-04T16:49:17.016Z,18.8
2023-04-04T16:55:11.884Z,18.8
2023-04-04T17:01:08.388Z,18.8
2023-04-04T17:07:08.486Z,18.8
2023-04-04T17:13:08.659Z,18.8
2023-04-04T17:30:39.589Z,18.6
2023-04-04T17:36:39.735Z,18.6
2023-04-04T17:42:24.361Z,18.6
2023-04-04T17:48:08.297Z,18.6
2023-04-04T17:53:53.884Z,18.6
2023-04-04T17:59:42.792Z,18.6
2023-04-04T18:05:40.577Z,18.6
2023-04-04T18:11:38.689Z,18.6
2023-04-04T18:17:46.772Z,18.6
2023-04-04T18:24:00.409Z,18.5
2023-04-04T18:30:00.192Z,18.5
2023-04-04T18:35:59.792Z,18.5
2023-04-04T18:41:43.493Z,18.5
2023-04-04T18:47:54.207Z,18.5
2023-04-04T18:53:39.139Z,18.5
2023-04-04T18:59:40.510Z,18.5
2023-04-04T19:05:44.909Z,18.4
2023-04-04T19:11:44.821Z,18.4
2023-04-04T19:17:47.890Z,18.4
2023-04-04T19:23:47.142Z,18.4
2023-04-04T19:29:33.379Z,18.5
2023-04-04T19:35:34.044Z,18.8
2023-04-04T19:41:34.705Z,19.3
2023-04-04T19:47:36.746Z,19.9
2023-04-04T19:53:37.808Z,20.6
2023-04-04T19:59:41.634Z,21.3
2023-04-04T20:05:50.759Z,21.9
2023-04-04T20:11:50.397Z,22.6
2023-04-04T20:17:50.522Z,23.1
2023-04-04T20:23:52.994Z,23.4
2023-04-04T20:29:36.321Z,23.8
2023-04-04T20:35:36.726Z,24
2023-04-04T20:41:39.045Z,24.2
2023-04-04T20:47:38.914Z,24.3
2023-04-04T20:53:39.546Z,24.4
2023-04-04T20:59:24.222Z,24.4
2023-04-04T21:05:27.755Z,24.4
2023-04-04T21:11:27.298Z,24.4
2023-04-04T21:17:10.411Z,24.5
2023-04-04T21:23:11.535Z,24.5
2023-04-04T21:29:11.611Z,24.6
2023-04-04T21:35:11.070Z,24.5
2023-04-04T21:41:06.032Z,24.5
2023-04-04T21:47:00.118Z,24.5
2023-04-04T21:52:54.266Z,24.6
2023-04-04T21:58:46.704Z,24.6
2023-04-04T22:04:39.628Z,24.5
2023-04-04T22:10:24.784Z,24.5
2023-04-04T22:16:19.439Z,24.5
2023-04-04T22:22:11.349Z,24.5
2023-04-04T22:28:02.743Z,24.5
2023-04-04T22:33:53.566Z,24.5
2023-04-04T22:39:46.509Z,24.5
2023-04-04T22:45:38.331Z,24.5
2023-04-04T22:51:15.427Z,24.5
2023-04-04T22:57:07.364Z,24.5
2023-04-04T23:02:59.759Z,24.4
2023-04-04T23:08:51.492Z,24.5
2023-04-04T23:14:28.341Z,24.4
2023-04-04T23:20:20.475Z,24.4
2023-04-04T23:26:11.561Z,24.4
2023-04-04T23:32:03.899Z,24.4
2023-04-04T23:37:55.536Z,24.4
2023-04-04T23:43:47.132Z,24.4
2023-04-04T23:49:23.858Z,24.4
2023-04-04T23:55:00.439Z,24.4
